JME558 EDDH-ELLX
Flight info
| Callsign | JME558 |
|---|---|
| Flight time | N/A |
| Altitude | 43000 |
| Route | HABFU1G HABFU Y348 MAWEQ Z718 OSNAD M170 HMM N853 IRBUP Z717 NEREL T855 LNO |
| Aircraft | E55P/M-SBDFGHJ2RWY/LB2 |
Departure
| Time | 2026-05-06 18:46 |
|---|---|
| Airport | Hamburg Helmut Schmidt Airport (EDDH) |
Arrival
| Time | N/A |
|---|---|
| Airport | Luxembourg-Findel International Airport (ELLX) |
| Time | Latitude | Longitude | Altitude | Speed | Heading |
|---|---|---|---|---|---|
| 2026-05-06 18:18 | 53.62735 | 9.98910 | 39 ft | 0 kts | 62° |
| 2026-05-06 18:41 | 53.62740 | 9.98911 | 39 ft | 1 kts | 332° |
| 2026-05-06 18:41 | 53.62733 | 9.98897 | 39 ft | 2 kts | 206° |
| 2026-05-06 18:41 | 53.62728 | 9.98859 | 39 ft | 4 kts | 299° |
| 2026-05-06 18:42 | 53.62757 | 9.98827 | 39 ft | 5 kts | 332° |
| 2026-05-06 18:42 | 53.62797 | 9.98796 | 39 ft | 6 kts | 355° |
| 2026-05-06 18:42 | 53.62837 | 9.98852 | 39 ft | 8 kts | 49° |
| 2026-05-06 18:42 | 53.62884 | 9.98945 | 39 ft | 11 kts | 50° |
| 2026-05-06 18:43 | 53.62938 | 9.99054 | 39 ft | 12 kts | 50° |
| 2026-05-06 18:43 | 53.62994 | 9.99166 | 40 ft | 12 kts | 50° |
| 2026-05-06 18:43 | 53.63055 | 9.99268 | 40 ft | 12 kts | 32° |
| 2026-05-06 18:43 | 53.63128 | 9.99310 | 40 ft | 6 kts | 13° |
| 2026-05-06 18:44 | 53.63138 | 9.99315 | 40 ft | 0 kts | 14° |
| 2026-05-06 18:45 | 53.63139 | 9.99315 | 40 ft | 1 kts | 14° |
| 2026-05-06 18:45 | 53.63157 | 9.99322 | 40 ft | 6 kts | 14° |
| 2026-05-06 18:46 | 53.63300 | 9.99353 | 41 ft | 24 kts | 347° |
| 2026-05-06 18:46 | 53.63683 | 9.99039 | 42 ft | 102 kts | 334° |
| 2026-05-06 18:46 | 53.64447 | 9.98361 | 364 ft | 140 kts | 334° |
| 2026-05-06 18:46 | 53.65306 | 9.97545 | 1142 ft | 150 kts | 336° |
| 2026-05-06 18:47 | 53.66240 | 9.96761 | 1988 ft | 154 kts | 343° |
| 2026-05-06 18:47 | 53.67203 | 9.95996 | 2830 ft | 159 kts | 341° |
| 2026-05-06 18:47 | 53.68184 | 9.95185 | 3655 ft | 164 kts | 340° |
| 2026-05-06 18:47 | 53.69257 | 9.94287 | 4132 ft | 191 kts | 338° |
| 2026-05-06 18:48 | 53.70561 | 9.93147 | 4492 ft | 229 kts | 331° |
| 2026-05-06 18:48 | 53.71469 | 9.91018 | 5687 ft | 234 kts | 285° |
| 2026-05-06 18:48 | 53.71319 | 9.88419 | 6960 ft | 229 kts | 250° |
| 2026-05-06 18:48 | 53.70797 | 9.85966 | 8006 ft | 229 kts | 252° |
| 2026-05-06 18:49 | 53.70286 | 9.83411 | 8935 ft | 235 kts | 252° |
| 2026-05-06 18:49 | 53.69746 | 9.80679 | 9545 ft | 256 kts | 252° |
| 2026-05-06 18:49 | 53.69176 | 9.77800 | 9833 ft | 261 kts | 252° |
| 2026-05-06 18:49 | 53.68602 | 9.74888 | 9865 ft | 263 kts | 252° |
| 2026-05-06 18:50 | 53.68024 | 9.71949 | 9891 ft | 265 kts | 252° |
| 2026-05-06 18:50 | 53.67449 | 9.69025 | 9901 ft | 267 kts | 252° |
| 2026-05-06 18:50 | 53.66856 | 9.66026 | 9877 ft | 269 kts | 252° |
| 2026-05-06 18:50 | 53.66265 | 9.63036 | 9894 ft | 270 kts | 252° |
| 2026-05-06 18:51 | 53.65663 | 9.59997 | 9930 ft | 272 kts | 251° |
| 2026-05-06 18:51 | 53.64647 | 9.57395 | 9911 ft | 274 kts | 220° |
| 2026-05-06 18:51 | 53.62942 | 9.55806 | 10226 ft | 290 kts | 208° |
| 2026-05-06 18:51 | 53.61209 | 9.54220 | 11454 ft | 282 kts | 209° |
| 2026-05-06 18:52 | 53.59529 | 9.52690 | 12603 ft | 275 kts | 209° |
| 2026-05-06 18:52 | 53.57853 | 9.51176 | 13432 ft | 279 kts | 209° |
| 2026-05-06 18:52 | 53.56157 | 9.49599 | 14240 ft | 284 kts | 211° |
| 2026-05-06 18:52 | 53.54397 | 9.48000 | 15020 ft | 288 kts | 209° |
| 2026-05-06 18:53 | 53.52676 | 9.46419 | 15819 ft | 289 kts | 209° |
| 2026-05-06 18:53 | 53.50907 | 9.44803 | 16698 ft | 289 kts | 210° |
| 2026-05-06 18:53 | 53.49153 | 9.43206 | 17483 ft | 290 kts | 210° |
| 2026-05-06 18:53 | 53.47385 | 9.41594 | 18178 ft | 293 kts | 210° |
| 2026-05-06 18:54 | 53.45606 | 9.39976 | 18921 ft | 294 kts | 210° |
| 2026-05-06 18:54 | 53.43797 | 9.38330 | 19583 ft | 298 kts | 210° |
| 2026-05-06 18:54 | 53.41961 | 9.36661 | 19858 ft | 303 kts | 210° |
| 2026-05-06 18:54 | 53.40140 | 9.35005 | 19872 ft | 302 kts | 210° |
| 2026-05-06 18:55 | 53.38285 | 9.33330 | 19903 ft | 303 kts | 208° |
| 2026-05-06 18:55 | 53.36415 | 9.31631 | 19889 ft | 305 kts | 210° |
| 2026-05-06 18:55 | 53.34531 | 9.29929 | 19897 ft | 306 kts | 208° |
| 2026-05-06 18:55 | 53.32653 | 9.28271 | 19897 ft | 308 kts | 205° |
| 2026-05-06 18:56 | 53.30569 | 9.27439 | 19904 ft | 310 kts | 190° |
| 2026-05-06 18:56 | 53.28412 | 9.26796 | 20009 ft | 324 kts | 191° |
| 2026-05-06 18:56 | 53.26182 | 9.26128 | 20633 ft | 328 kts | 191° |
| 2026-05-06 18:56 | 53.23953 | 9.25465 | 21506 ft | 324 kts | 192° |
| 2026-05-06 18:57 | 53.21747 | 9.24807 | 22201 ft | 325 kts | 191° |
| 2026-05-06 18:57 | 53.19506 | 9.24137 | 22746 ft | 331 kts | 191° |
| 2026-05-06 18:57 | 53.17242 | 9.23468 | 23346 ft | 335 kts | 192° |
| 2026-05-06 18:57 | 53.14952 | 9.22784 | 23949 ft | 338 kts | 191° |
| 2026-05-06 18:58 | 53.12637 | 9.22099 | 24563 ft | 340 kts | 191° |
| 2026-05-06 18:58 | 53.10290 | 9.21402 | 25151 ft | 344 kts | 191° |
| 2026-05-06 18:58 | 53.07935 | 9.20708 | 25749 ft | 346 kts | 191° |
| 2026-05-06 18:58 | 53.05557 | 9.20005 | 26356 ft | 348 kts | 191° |
| 2026-05-06 18:59 | 53.03184 | 9.19302 | 26903 ft | 352 kts | 191° |
| 2026-05-06 18:59 | 53.00767 | 9.18589 | 27502 ft | 353 kts | 191° |
| 2026-05-06 18:59 | 52.98359 | 9.17880 | 28222 ft | 351 kts | 191° |
| 2026-05-06 18:59 | 52.95974 | 9.17175 | 28984 ft | 348 kts | 192° |
| 2026-05-06 19:00 | 52.93738 | 9.15778 | 29681 ft | 343 kts | 210° |
| 2026-05-06 19:00 | 52.91645 | 9.13903 | 30371 ft | 342 kts | 209° |
| 2026-05-06 19:00 | 52.89554 | 9.12059 | 31028 ft | 341 kts | 209° |
| 2026-05-06 19:00 | 52.88163 | 9.10842 | 31413 ft | 341 kts | 208° |
| 2026-05-06 19:01 | 52.85342 | 9.08372 | 32223 ft | 338 kts | 209° |
| 2026-05-06 19:01 | 52.83260 | 9.06552 | 32847 ft | 335 kts | 209° |
| 2026-05-06 19:01 | 52.81221 | 9.04768 | 33411 ft | 332 kts | 209° |
| 2026-05-06 19:01 | 52.79184 | 9.02990 | 33882 ft | 330 kts | 209° |
| 2026-05-06 19:02 | 52.77201 | 9.01258 | 34304 ft | 328 kts | 209° |
| 2026-05-06 19:02 | 52.75182 | 8.99501 | 34709 ft | 328 kts | 209° |
| 2026-05-06 19:02 | 52.73193 | 8.97769 | 35080 ft | 328 kts | 209° |
| 2026-05-06 19:02 | 52.71166 | 8.96005 | 35448 ft | 327 kts | 209° |
| 2026-05-06 19:03 | 52.69164 | 8.94266 | 35833 ft | 325 kts | 209° |
| 2026-05-06 19:03 | 52.67221 | 8.92577 | 36172 ft | 324 kts | 209° |
| 2026-05-06 19:03 | 52.65224 | 8.90842 | 36502 ft | 324 kts | 209° |
| 2026-05-06 19:03 | 52.63257 | 8.89137 | 36810 ft | 323 kts | 209° |
| 2026-05-06 19:04 | 52.61263 | 8.87409 | 37107 ft | 323 kts | 209° |
| 2026-05-06 19:04 | 52.59275 | 8.85688 | 37367 ft | 324 kts | 209° |
| 2026-05-06 19:04 | 52.57281 | 8.83964 | 37637 ft | 324 kts | 208° |
| 2026-05-06 19:04 | 52.55325 | 8.82274 | 37905 ft | 324 kts | 209° |
| 2026-05-06 19:05 | 52.53327 | 8.80548 | 38184 ft | 323 kts | 208° |
| 2026-05-06 19:05 | 52.51342 | 8.78840 | 38446 ft | 324 kts | 208° |
| 2026-05-06 19:05 | 52.49339 | 8.77115 | 38691 ft | 325 kts | 208° |
| 2026-05-06 19:05 | 52.47346 | 8.75401 | 38982 ft | 325 kts | 208° |
| 2026-05-06 19:06 | 52.45333 | 8.73671 | 39265 ft | 326 kts | 208° |
| 2026-05-06 19:06 | 52.43346 | 8.71966 | 39548 ft | 326 kts | 208° |
| 2026-05-06 19:06 | 52.41347 | 8.70251 | 39839 ft | 326 kts | 208° |
| 2026-05-06 19:06 | 52.39328 | 8.68524 | 40099 ft | 326 kts | 209° |
| 2026-05-06 19:07 | 52.37340 | 8.66823 | 40356 ft | 326 kts | 209° |
| 2026-05-06 19:07 | 52.35982 | 8.65659 | 40521 ft | 327 kts | 209° |
| 2026-05-06 19:07 | 52.33295 | 8.63365 | 40863 ft | 327 kts | 209° |
| 2026-05-06 19:07 | 52.31302 | 8.61663 | 41104 ft | 327 kts | 209° |
| 2026-05-06 19:08 | 52.29294 | 8.59951 | 41313 ft | 328 kts | 209° |
| 2026-05-06 19:08 | 52.27434 | 8.57778 | 41473 ft | 329 kts | 231° |
| 2026-05-06 19:08 | 52.26373 | 8.54540 | 41657 ft | 330 kts | 250° |
| 2026-05-06 19:08 | 52.25570 | 8.51072 | 41898 ft | 329 kts | 247° |
| 2026-05-06 19:09 | 52.24712 | 8.47598 | 42102 ft | 330 kts | 247° |
| 2026-05-06 19:09 | 52.23856 | 8.44115 | 42302 ft | 330 kts | 247° |
| 2026-05-06 19:09 | 52.23006 | 8.40670 | 42499 ft | 330 kts | 247° |
| 2026-05-06 19:09 | 52.22147 | 8.37183 | 42693 ft | 331 kts | 247° |
| 2026-05-06 19:10 | 52.21284 | 8.33695 | 42853 ft | 332 kts | 246° |
| 2026-05-06 19:10 | 52.19129 | 8.27008 | 42893 ft | 337 kts | 225° |
| 2026-05-06 19:11 | 52.15851 | 8.21502 | 42862 ft | 341 kts | 226° |
| 2026-05-06 19:11 | 52.12547 | 8.15894 | 42869 ft | 344 kts | 226° |
| 2026-05-06 19:12 | 52.09237 | 8.10301 | 42865 ft | 347 kts | 226° |
| 2026-05-06 19:12 | 52.05852 | 8.04592 | 42873 ft | 350 kts | 226° |
| 2026-05-06 19:13 | 52.02452 | 7.98872 | 42755 ft | 357 kts | 226° |
| 2026-05-06 19:13 | 52.00716 | 7.95953 | 42281 ft | 364 kts | 226° |
| 2026-05-06 19:13 | 51.98950 | 7.92988 | 41855 ft | 362 kts | 226° |
| 2026-05-06 19:13 | 51.97222 | 7.90092 | 41363 ft | 361 kts | 226° |
| 2026-05-06 19:14 | 51.95468 | 7.87156 | 40569 ft | 367 kts | 226° |
| 2026-05-06 19:14 | 51.93746 | 7.84272 | 39816 ft | 372 kts | 226° |
| 2026-05-06 19:14 | 51.91970 | 7.81305 | 39177 ft | 371 kts | 226° |
| 2026-05-06 19:14 | 51.90171 | 7.78305 | 38595 ft | 369 kts | 226° |
| 2026-05-06 19:15 | 51.88372 | 7.75305 | 38025 ft | 369 kts | 226° |
| 2026-05-06 19:15 | 51.86586 | 7.72331 | 37418 ft | 370 kts | 225° |
| 2026-05-06 19:15 | 51.84575 | 7.69856 | 36824 ft | 371 kts | 208° |
| 2026-05-06 19:15 | 51.82295 | 7.68039 | 36333 ft | 368 kts | 208° |
| 2026-05-06 19:16 | 51.80291 | 7.66385 | 36014 ft | 361 kts | 208° |
| 2026-05-06 19:16 | 51.78043 | 7.64538 | 35644 ft | 358 kts | 208° |
| 2026-05-06 19:16 | 51.75852 | 7.62736 | 35277 ft | 357 kts | 208° |
| 2026-05-06 19:16 | 51.73657 | 7.60935 | 34858 ft | 356 kts | 208° |
| 2026-05-06 19:17 | 51.71790 | 7.59405 | 34535 ft | 355 kts | 208° |
| 2026-05-06 19:17 | 51.69737 | 7.58068 | 34165 ft | 354 kts | 198° |
| 2026-05-06 19:17 | 51.67178 | 7.56811 | 33760 ft | 352 kts | 199° |
| 2026-05-06 19:17 | 51.64877 | 7.55651 | 33376 ft | 351 kts | 198° |
| 2026-05-06 19:18 | 51.62532 | 7.54474 | 32992 ft | 350 kts | 198° |
| 2026-05-06 19:18 | 51.60476 | 7.53444 | 32602 ft | 349 kts | 198° |
| 2026-05-06 19:18 | 51.58195 | 7.52295 | 32176 ft | 346 kts | 198° |
| 2026-05-06 19:18 | 51.56221 | 7.51305 | 31828 ft | 344 kts | 198° |
| 2026-05-06 19:19 | 51.54399 | 7.50392 | 31509 ft | 342 kts | 198° |
| 2026-05-06 19:19 | 51.50171 | 7.48168 | 30736 ft | 336 kts | 207° |
| 2026-05-06 19:19 | 51.48422 | 7.45802 | 30344 ft | 333 kts | 234° |
| 2026-05-06 19:20 | 51.47326 | 7.42552 | 29985 ft | 330 kts | 242° |
| 2026-05-06 19:20 | 51.46343 | 7.39589 | 29637 ft | 330 kts | 241° |
| 2026-05-06 19:20 | 51.45290 | 7.36417 | 29268 ft | 332 kts | 241° |
| 2026-05-06 19:20 | 51.44212 | 7.33195 | 28900 ft | 334 kts | 240° |
| 2026-05-06 19:21 | 51.43146 | 7.30000 | 28542 ft | 335 kts | 240° |
| 2026-05-06 19:21 | 51.41947 | 7.26811 | 28164 ft | 335 kts | 232° |
| 2026-05-06 19:21 | 51.40540 | 7.23836 | 27798 ft | 338 kts | 232° |
| 2026-05-06 19:21 | 51.39391 | 7.21363 | 27497 ft | 346 kts | 232° |
| 2026-05-06 19:22 | 51.37949 | 7.18275 | 27113 ft | 353 kts | 232° |
| 2026-05-06 19:22 | 51.36536 | 7.15247 | 26740 ft | 359 kts | 232° |
| 2026-05-06 19:22 | 51.35507 | 7.13036 | 26464 ft | 362 kts | 233° |
| 2026-05-06 19:22 | 51.34002 | 7.09811 | 26058 ft | 367 kts | 233° |
| 2026-05-06 19:23 | 51.33097 | 7.07880 | 25814 ft | 369 kts | 233° |
| 2026-05-06 19:23 | 51.30063 | 7.01394 | 25011 ft | 373 kts | 233° |
| 2026-05-06 19:23 | 51.28149 | 6.97316 | 24509 ft | 374 kts | 233° |
| 2026-05-06 19:24 | 51.26871 | 6.94599 | 24174 ft | 369 kts | 233° |
| 2026-05-06 19:24 | 51.25641 | 6.91978 | 23847 ft | 365 kts | 233° |
| 2026-05-06 19:24 | 51.24120 | 6.88743 | 23455 ft | 359 kts | 233° |
| 2026-05-06 19:24 | 51.22623 | 6.85570 | 23071 ft | 355 kts | 233° |
| 2026-05-06 19:25 | 51.21126 | 6.82395 | 22682 ft | 351 kts | 233° |
| 2026-05-06 19:25 | 51.19775 | 6.79532 | 22324 ft | 348 kts | 233° |
| 2026-05-06 19:25 | 51.18445 | 6.76717 | 21978 ft | 348 kts | 233° |
| 2026-05-06 19:25 | 51.16827 | 6.73306 | 21558 ft | 347 kts | 233° |
| 2026-05-06 19:26 | 51.15424 | 6.70351 | 21191 ft | 347 kts | 233° |
| 2026-05-06 19:26 | 51.14528 | 6.68462 | 20959 ft | 346 kts | 233° |